sensor_id;sensor_type;location;lat;lon;timestamp;temperature;humidity
38398;DHT22;24179;52.094;4.408;2022-08-01T00:00:57;19.00;99.90
38398;DHT22;24179;52.094;4.408;2022-08-01T00:03:57;19.10;99.90
38398;DHT22;24179;52.094;4.408;2022-08-01T00:06:58;19.10;99.90
38398;DHT22;24179;52.094;4.408;2022-08-01T00:09:59;19.10;99.90
38398;DHT22;24179;52.094;4.408;2022-08-01T00:12:59;19.10;99.90
38398;DHT22;24179;52.094;4.408;2022-08-01T00:16:00;19.10;99.90
38398;DHT22;24179;52.094;4.408;2022-08-01T00:19:00;18.90;99.90
38398;DHT22;24179;52.094;4.408;2022-08-01T00:22:01;18.80;99.90
38398;DHT22;24179;52.094;4.408;2022-08-01T00:25:03;18.70;99.90
38398;DHT22;24179;52.094;4.408;2022-08-01T00:28:04;18.60;99.90
38398;DHT22;24179;52.094;4.408;2022-08-01T00:31:08;18.50;99.90
38398;DHT22;24179;52.094;4.408;2022-08-01T00:34:10;18.40;99.90
38398;DHT22;24179;52.094;4.408;2022-08-01T00:37:10;18.40;99.90
38398;DHT22;24179;52.094;4.408;2022-08-01T00:40:11;18.40;99.90
38398;DHT22;24179;52.094;4.408;2022-08-01T00:43:12;18.40;99.90
38398;DHT22;24179;52.094;4.408;2022-08-01T00:46:12;18.30;99.90
38398;DHT22;24179;52.094;4.408;2022-08-01T00:49:13;18.40;99.90
38398;DHT22;24179;52.094;4.408;2022-08-01T00:52:14;18.40;99.90
38398;DHT22;24179;52.094;4.408;2022-08-01T00:55:15;18.40;99.90
38398;DHT22;24179;52.094;4.408;2022-08-01T00:58:16;18.40;99.90
38398;DHT22;24179;52.094;4.408;2022-08-01T01:01:17;18.40;99.90
38398;DHT22;24179;52.094;4.408;2022-08-01T01:04:20;18.40;99.90
38398;DHT22;24179;52.094;4.408;2022-08-01T01:13:57;18.40;99.90
38398;DHT22;24179;52.094;4.408;2022-08-01T01:17:02;18.30;99.90
38398;DHT22;24179;52.094;4.408;2022-08-01T01:20:05;18.30;99.90
38398;DHT22;24179;52.094;4.408;2022-08-01T01:29:52;18.30;99.90
38398;DHT22;24179;52.094;4.408;2022-08-01T01:32:55;18.40;99.90
38398;DHT22;24179;52.094;4.408;2022-08-01T01:36:00;18.40;99.90
38398;DHT22;24179;52.094;4.408;2022-08-01T01:39:02;18.40;99.90
38398;DHT22;24179;52.094;4.408;2022-08-01T01:42:06;18.40;99.90
38398;DHT22;24179;52.094;4.408;2022-08-01T01:45:07;18.40;99.90
38398;DHT22;24179;52.094;4.408;2022-08-01T01:48:09;18.40;99.90
38398;DHT22;24179;52.094;4.408;2022-08-01T01:51:11;18.30;99.90
38398;DHT22;24179;52.094;4.408;2022-08-01T01:54:12;18.40;99.90
38398;DHT22;24179;52.094;4.408;2022-08-01T01:57:15;18.30;99.90
38398;DHT22;24179;52.094;4.408;2022-08-01T02:00:16;18.40;99.90
38398;DHT22;24179;52.094;4.408;2022-08-01T02:03:20;18.40;99.90
38398;DHT22;24179;52.094;4.408;2022-08-01T02:06:22;18.40;99.90
38398;DHT22;24179;52.094;4.408;2022-08-01T02:09:25;18.40;99.90
38398;DHT22;24179;52.094;4.408;2022-08-01T02:12:29;18.40;99.90
38398;DHT22;24179;52.094;4.408;2022-08-01T02:15:33;18.40;99.90
38398;DHT22;24179;52.094;4.408;2022-08-01T02:18:38;18.40;99.90
38398;DHT22;24179;52.094;4.408;2022-08-01T02:21:44;18.40;99.90
38398;DHT22;24179;52.094;4.408;2022-08-01T02:24:54;18.40;99.90
38398;DHT22;24179;52.094;4.408;2022-08-01T02:28:05;18.40;99.90
38398;DHT22;24179;52.094;4.408;2022-08-01T02:31:12;18.40;99.90
38398;DHT22;24179;52.094;4.408;2022-08-01T02:34:18;18.40;99.90
38398;DHT22;24179;52.094;4.408;2022-08-01T02:37:20;18.40;99.90
38398;DHT22;24179;52.094;4.408;2022-08-01T02:40:22;18.50;99.90
38398;DHT22;24179;52.094;4.408;2022-08-01T02:43:24;18.40;99.90
38398;DHT22;24179;52.094;4.408;2022-08-01T02:46:35;18.40;99.90
38398;DHT22;24179;52.094;4.408;2022-08-01T02:49:40;18.30;99.90
38398;DHT22;24179;52.094;4.408;2022-08-01T02:52:47;18.40;99.90
38398;DHT22;24179;52.094;4.408;2022-08-01T02:55:48;18.40;99.90
38398;DHT22;24179;52.094;4.408;2022-08-01T02:58:51;18.40;99.90
38398;DHT22;24179;52.094;4.408;2022-08-01T03:01:55;18.30;99.90
38398;DHT22;24179;52.094;4.408;2022-08-01T03:04:57;18.30;99.90
38398;DHT22;24179;52.094;4.408;2022-08-01T03:08:00;18.30;99.90
38398;DHT22;24179;52.094;4.408;2022-08-01T03:11:04;18.30;99.90
38398;DHT22;24179;52.094;4.408;2022-08-01T03:14:06;18.30;99.90
38398;DHT22;24179;52.094;4.408;2022-08-01T03:17:08;18.40;99.90
38398;DHT22;24179;52.094;4.408;2022-08-01T03:20:14;18.40;99.90
38398;DHT22;24179;52.094;4.408;2022-08-01T03:23:15;18.40;99.90
38398;DHT22;24179;52.094;4.408;2022-08-01T03:26:17;18.40;99.90
38398;DHT22;24179;52.094;4.408;2022-08-01T03:29:21;18.40;99.90
38398;DHT22;24179;52.094;4.408;2022-08-01T03:32:23;18.50;99.90
38398;DHT22;24179;52.094;4.408;2022-08-01T03:35:32;18.50;99.90
38398;DHT22;24179;52.094;4.408;2022-08-01T03:38:37;18.60;99.90
38398;DHT22;24179;52.094;4.408;2022-08-01T03:41:41;18.60;99.90
38398;DHT22;24179;52.094;4.408;2022-08-01T03:44:50;18.60;99.90
38398;DHT22;24179;52.094;4.408;2022-08-01T03:47:59;18.60;99.90
38398;DHT22;24179;52.094;4.408;2022-08-01T03:51:01;18.50;99.90
38398;DHT22;24179;52.094;4.408;2022-08-01T03:54:04;18.40;99.90
38398;DHT22;24179;52.094;4.408;2022-08-01T03:57:05;18.40;99.90
38398;DHT22;24179;52.094;4.408;2022-08-01T04:00:07;18.30;99.90
38398;DHT22;24179;52.094;4.408;2022-08-01T04:03:10;18.30;99.90
38398;DHT22;24179;52.094;4.408;2022-08-01T04:06:11;18.30;99.90
38398;DHT22;24179;52.094;4.408;2022-08-01T04:09:19;18.30;99.90
38398;DHT22;24179;52.094;4.408;2022-08-01T04:12:23;18.40;99.90
38398;DHT22;24179;52.094;4.408;2022-08-01T04:15:24;18.50;99.90
38398;DHT22;24179;52.094;4.408;2022-08-01T04:18:25;18.50;99.90
38398;DHT22;24179;52.094;4.408;2022-08-01T04:21:26;18.40;99.90
38398;DHT22;24179;52.094;4.408;2022-08-01T04:24:29;18.40;99.90
38398;DHT22;24179;52.094;4.408;2022-08-01T04:27:34;18.40;99.90
38398;DHT22;24179;52.094;4.408;2022-08-01T04:30:37;18.40;99.90
38398;DHT22;24179;52.094;4.408;2022-08-01T04:33:46;18.40;99.90
38398;DHT22;24179;52.094;4.408;2022-08-01T04:36:48;18.50;99.90
38398;DHT22;24179;52.094;4.408;2022-08-01T04:39:52;18.60;99.90
38398;DHT22;24179;52.094;4.408;2022-08-01T04:42:53;18.70;99.90
38398;DHT22;24179;52.094;4.408;2022-08-01T04:45:54;18.70;99.90
38398;DHT22;24179;52.094;4.408;2022-08-01T04:48:56;18.70;99.90
38398;DHT22;24179;52.094;4.408;2022-08-01T04:51:57;18.70;99.90
38398;DHT22;24179;52.094;4.408;2022-08-01T04:54:58;18.70;99.90
38398;DHT22;24179;52.094;4.408;2022-08-01T04:57:58;18.60;99.90
38398;DHT22;24179;52.094;4.408;2022-08-01T05:00:59;18.60;99.90
38398;DHT22;24179;52.094;4.408;2022-08-01T05:03:59;18.50;99.90
38398;DHT22;24179;52.094;4.408;2022-08-01T05:07:01;18.60;99.90
38398;DHT22;24179;52.094;4.408;2022-08-01T05:10:03;18.60;99.90
38398;DHT22;24179;52.094;4.408;2022-08-01T05:13:04;18.50;99.90
38398;DHT22;24179;52.094;4.408;2022-08-01T05:16:06;18.50;99.90
38398;DHT22;24179;52.094;4.408;2022-08-01T05:19:07;18.40;99.90
38398;DHT22;24179;52.094;4.408;2022-08-01T05:22:09;18.30;99.90
38398;DHT22;24179;52.094;4.408;2022-08-01T05:25:10;18.20;99.90
38398;DHT22;24179;52.094;4.408;2022-08-01T05:28:10;18.10;99.90
38398;DHT22;24179;52.094;4.408;2022-08-01T05:31:11;18.20;99.90
38398;DHT22;24179;52.094;4.408;2022-08-01T05:34:11;18.20;99.90
38398;DHT22;24179;52.094;4.408;2022-08-01T05:37:12;18.30;99.90
38398;DHT22;24179;52.094;4.408;2022-08-01T05:40:13;18.30;99.90
38398;DHT22;24179;52.094;4.408;2022-08-01T05:43:13;18.30;99.90
38398;DHT22;24179;52.094;4.408;2022-08-01T05:46:14;18.40;99.90
38398;DHT22;24179;52.094;4.408;2022-08-01T05:49:14;18.30;99.90
38398;DHT22;24179;52.094;4.408;2022-08-01T05:52:15;18.20;99.90
38398;DHT22;24179;52.094;4.408;2022-08-01T05:55:16;18.20;99.90
38398;DHT22;24179;52.094;4.408;2022-08-01T05:58:16;18.20;99.90
38398;DHT22;24179;52.094;4.408;2022-08-01T06:01:17;18.10;99.90
38398;DHT22;24179;52.094;4.408;2022-08-01T06:04:18;18.20;99.90
38398;DHT22;24179;52.094;4.408;2022-08-01T06:07:19;18.20;99.90
38398;DHT22;24179;52.094;4.408;2022-08-01T06:10:20;18.30;99.90
38398;DHT22;24179;52.094;4.408;2022-08-01T06:13:20;18.40;99.90
38398;DHT22;24179;52.094;4.408;2022-08-01T06:16:22;18.40;99.90
38398;DHT22;24179;52.094;4.408;2022-08-01T06:19:23;18.40;99.90
38398;DHT22;24179;52.094;4.408;2022-08-01T06:22:23;18.40;99.90
38398;DHT22;24179;52.094;4.408;2022-08-01T06:25:24;18.40;99.90
38398;DHT22;24179;52.094;4.408;2022-08-01T06:28:24;18.50;99.90
38398;DHT22;24179;52.094;4.408;2022-08-01T06:31:25;18.70;99.90
38398;DHT22;24179;52.094;4.408;2022-08-01T06:34:26;18.90;99.90
38398;DHT22;24179;52.094;4.408;2022-08-01T06:37:32;18.90;99.90
38398;DHT22;24179;52.094;4.408;2022-08-01T06:40:33;19.00;99.90
38398;DHT22;24179;52.094;4.408;2022-08-01T06:43:34;19.10;99.90
38398;DHT22;24179;52.094;4.408;2022-08-01T06:46:34;19.30;99.90
38398;DHT22;24179;52.094;4.408;2022-08-01T06:49:35;19.30;99.90
38398;DHT22;24179;52.094;4.408;2022-08-01T06:52:36;19.70;99.90
38398;DHT22;24179;52.094;4.408;2022-08-01T06:55:36;20.10;99.90
38398;DHT22;24179;52.094;4.408;2022-08-01T06:58:37;20.40;99.90
38398;DHT22;24179;52.094;4.408;2022-08-01T07:01:38;20.60;99.90
38398;DHT22;24179;52.094;4.408;2022-08-01T07:04:38;20.90;99.90
38398;DHT22;24179;52.094;4.408;2022-08-01T07:07:39;20.80;99.90
38398;DHT22;24179;52.094;4.408;2022-08-01T07:10:39;20.90;99.90
38398;DHT22;24179;52.094;4.408;2022-08-01T07:13:40;21.20;99.90
38398;DHT22;24179;52.094;4.408;2022-08-01T07:16:41;21.20;99.90
38398;DHT22;24179;52.094;4.408;2022-08-01T07:19:41;21.60;99.90
38398;DHT22;24179;52.094;4.408;2022-08-01T07:22:42;21.70;99.90
38398;DHT22;24179;52.094;4.408;2022-08-01T07:25:43;21.80;99.90
38398;DHT22;24179;52.094;4.408;2022-08-01T07:28:43;21.50;99.90
38398;DHT22;24179;52.094;4.408;2022-08-01T07:31:44;21.30;99.90
38398;DHT22;24179;52.094;4.408;2022-08-01T07:34:44;21.10;99.90
38398;DHT22;24179;52.094;4.408;2022-08-01T07:37:45;21.10;99.90
38398;DHT22;24179;52.094;4.408;2022-08-01T07:40:46;21.00;99.90
38398;DHT22;24179;52.094;4.408;2022-08-01T07:43:46;21.10;99.90
38398;DHT22;24179;52.094;4.408;2022-08-01T07:46:49;21.10;99.90
38398;DHT22;24179;52.094;4.408;2022-08-01T07:49:49;21.80;99.90
38398;DHT22;24179;52.094;4.408;2022-08-01T07:52:50;22.80;99.90
38398;DHT22;24179;52.094;4.408;2022-08-01T07:55:51;23.70;99.90
38398;DHT22;24179;52.094;4.408;2022-08-01T07:58:52;24.40;99.90
38398;DHT22;24179;52.094;4.408;2022-08-01T08:01:52;25.10;99.90
38398;DHT22;24179;52.094;4.408;2022-08-01T08:04:53;25.60;99.90
38398;DHT22;24179;52.094;4.408;2022-08-01T08:07:53;25.70;99.90
38398;DHT22;24179;52.094;4.408;2022-08-01T08:10:54;25.80;99.90
38398;DHT22;24179;52.094;4.408;2022-08-01T08:13:54;26.00;99.90
38398;DHT22;24179;52.094;4.408;2022-08-01T08:16:55;26.20;99.90
38398;DHT22;24179;52.094;4.408;2022-08-01T08:19:55;26.40;99.90
38398;DHT22;24179;52.094;4.408;2022-08-01T08:22:56;26.40;99.90
38398;DHT22;24179;52.094;4.408;2022-08-01T08:25:58;26.00;99.90
38398;DHT22;24179;52.094;4.408;2022-08-01T08:28:59;25.40;99.90
38398;DHT22;24179;52.094;4.408;2022-08-01T08:32:01;25.00;99.90
38398;DHT22;24179;52.094;4.408;2022-08-01T08:35:01;24.60;99.90
38398;DHT22;24179;52.094;4.408;2022-08-01T08:38:02;24.20;99.90
38398;DHT22;24179;52.094;4.408;2022-08-01T08:41:03;23.90;99.90
38398;DHT22;24179;52.094;4.408;2022-08-01T08:44:08;23.40;99.90
38398;DHT22;24179;52.094;4.408;2022-08-01T08:47:11;23.00;99.90
38398;DHT22;24179;52.094;4.408;2022-08-01T08:50:12;23.10;99.90
38398;DHT22;24179;52.094;4.408;2022-08-01T08:53:13;23.30;99.90
38398;DHT22;24179;52.094;4.408;2022-08-01T08:56:15;23.70;99.90
38398;DHT22;24179;52.094;4.408;2022-08-01T08:59:16;24.10;99.90
38398;DHT22;24179;52.094;4.408;2022-08-01T09:02:17;24.20;99.90
38398;DHT22;24179;52.094;4.408;2022-08-01T09:05:17;24.30;99.90
38398;DHT22;24179;52.094;4.408;2022-08-01T09:08:25;24.50;99.90
38398;DHT22;24179;52.094;4.408;2022-08-01T09:11:26;24.70;99.90
38398;DHT22;24179;52.094;4.408;2022-08-01T09:14:28;24.90;99.90
38398;DHT22;24179;52.094;4.408;2022-08-01T09:17:40;24.90;99.90
38398;DHT22;24179;52.094;4.408;2022-08-01T09:20:41;24.80;99.90
38398;DHT22;24179;52.094;4.408;2022-08-01T09:23:47;25.70;99.90
38398;DHT22;24179;52.094;4.408;2022-08-01T10:05:15;28.40;99.90
38398;DHT22;24179;52.094;4.408;2022-08-01T10:09:03;29.50;99.90
38398;DHT22;24179;52.094;4.408;2022-08-01T10:12:15;29.80;99.90
38398;DHT22;24179;52.094;4.408;2022-08-01T10:15:25;29.60;99.90
38398;DHT22;24179;52.094;4.408;2022-08-01T10:18:32;28.90;99.90
38398;DHT22;24179;52.094;4.408;2022-08-01T10:21:34;28.60;99.90
38398;DHT22;24179;52.094;4.408;2022-08-01T10:24:54;28.30;99.90
38398;DHT22;24179;52.094;4.408;2022-08-01T10:28:01;28.30;99.90
38398;DHT22;24179;52.094;4.408;2022-08-01T10:31:10;28.50;99.90
38398;DHT22;24179;52.094;4.408;2022-08-01T10:34:13;28.50;99.90
38398;DHT22;24179;52.094;4.408;2022-08-01T10:37:15;28.00;99.90
38398;DHT22;24179;52.094;4.408;2022-08-01T10:40:17;27.90;99.90
38398;DHT22;24179;52.094;4.408;2022-08-01T10:43:18;27.70;99.90
38398;DHT22;24179;52.094;4.408;2022-08-01T10:46:20;27.30;99.90
38398;DHT22;24179;52.094;4.408;2022-08-01T10:49:20;27.30;99.90
38398;DHT22;24179;52.094;4.408;2022-08-01T10:52:23;27.60;99.90
38398;DHT22;24179;52.094;4.408;2022-08-01T10:55:24;28.40;99.90
38398;DHT22;24179;52.094;4.408;2022-08-01T10:58:26;28.40;99.90
38398;DHT22;24179;52.094;4.408;2022-08-01T11:01:30;28.50;99.90
38398;DHT22;24179;52.094;4.408;2022-08-01T11:04:54;28.70;99.90
38398;DHT22;24179;52.094;4.408;2022-08-01T11:07:55;28.70;99.90
38398;DHT22;24179;52.094;4.408;2022-08-01T11:11:01;28.70;99.90
38398;DHT22;24179;52.094;4.408;2022-08-01T11:14:03;28.30;99.90
38398;DHT22;24179;52.094;4.408;2022-08-01T11:20:55;29.10;99.90
38398;DHT22;24179;52.094;4.408;2022-08-01T11:23:57;29.20;99.90
38398;DHT22;24179;52.094;4.408;2022-08-01T11:30:25;29.60;99.90
38398;DHT22;24179;52.094;4.408;2022-08-01T11:36:42;31.80;98.20
38398;DHT22;24179;52.094;4.408;2022-08-01T11:39:42;31.30;97.70
38398;DHT22;24179;52.094;4.408;2022-08-01T11:42:43;30.70;96.70
38398;DHT22;24179;52.094;4.408;2022-08-01T11:45:52;30.50;98.90
38398;DHT22;24179;52.094;4.408;2022-08-01T11:49:26;30.50;96.80
38398;DHT22;24179;52.094;4.408;2022-08-01T11:52:29;30.30;97.10
38398;DHT22;24179;52.094;4.408;2022-08-01T11:55:31;30.10;98.00
38398;DHT22;24179;52.094;4.408;2022-08-01T11:58:32;29.70;97.60
38398;DHT22;24179;52.094;4.408;2022-08-01T12:01:34;29.70;97.10
38398;DHT22;24179;52.094;4.408;2022-08-01T12:04:56;30.00;98.20
38398;DHT22;24179;52.094;4.408;2022-08-01T12:07:57;30.20;97.40
38398;DHT22;24179;52.094;4.408;2022-08-01T12:10:59;30.00;97.60
38398;DHT22;24179;52.094;4.408;2022-08-01T12:14:01;29.70;97.10
38398;DHT22;24179;52.094;4.408;2022-08-01T12:17:01;29.30;97.50
38398;DHT22;24179;52.094;4.408;2022-08-01T12:20:06;29.30;97.40
38398;DHT22;24179;52.094;4.408;2022-08-01T12:23:10;29.60;97.40
38398;DHT22;24179;52.094;4.408;2022-08-01T12:26:11;30.00;96.60
38398;DHT22;24179;52.094;4.408;2022-08-01T12:29:40;30.10;96.50
38398;DHT22;24179;52.094;4.408;2022-08-01T12:32:44;29.80;96.10
38398;DHT22;24179;52.094;4.408;2022-08-01T12:35:46;29.90;96.00
38398;DHT22;24179;52.094;4.408;2022-08-01T12:38:52;29.60;97.10
38398;DHT22;24179;52.094;4.408;2022-08-01T12:41:53;29.40;96.60
38398;DHT22;24179;52.094;4.408;2022-08-01T12:44:53;29.50;97.00
38398;DHT22;24179;52.094;4.408;2022-08-01T12:47:55;29.70;97.30
38398;DHT22;24179;52.094;4.408;2022-08-01T12:50:59;30.10;96.60
38398;DHT22;24179;52.094;4.408;2022-08-01T12:54:02;30.20;95.30
38398;DHT22;24179;52.094;4.408;2022-08-01T12:57:04;30.30;96.70
38398;DHT22;24179;52.094;4.408;2022-08-01T13:00:11;30.10;94.90
38398;DHT22;24179;52.094;4.408;2022-08-01T13:03:14;30.10;94.50
38398;DHT22;24179;52.094;4.408;2022-08-01T13:06:15;29.60;95.90
38398;DHT22;24179;52.094;4.408;2022-08-01T13:09:16;29.80;94.90
38398;DHT22;24179;52.094;4.408;2022-08-01T13:12:17;29.60;94.80
38398;DHT22;24179;52.094;4.408;2022-08-01T13:15:26;29.40;93.50
38398;DHT22;24179;52.094;4.408;2022-08-01T13:18:28;29.40;93.50
38398;DHT22;24179;52.094;4.408;2022-08-01T13:21:30;29.80;94.20
38398;DHT22;24179;52.094;4.408;2022-08-01T13:24:32;30.20;93.80
38398;DHT22;24179;52.094;4.408;2022-08-01T13:27:33;31.20;93.80
38398;DHT22;24179;52.094;4.408;2022-08-01T13:30:33;32.10;86.70
38398;DHT22;24179;52.094;4.408;2022-08-01T13:33:46;32.00;90.30
38398;DHT22;24179;52.094;4.408;2022-08-01T13:36:47;32.30;90.10
38398;DHT22;24179;52.094;4.408;2022-08-01T13:39:47;32.80;87.20
38398;DHT22;24179;52.094;4.408;2022-08-01T13:42:48;32.40;87.50
38398;DHT22;24179;52.094;4.408;2022-08-01T13:45:49;31.80;88.30
38398;DHT22;24179;52.094;4.408;2022-08-01T13:48:50;31.90;89.30
38398;DHT22;24179;52.094;4.408;2022-08-01T13:51:50;31.90;89.70
38398;DHT22;24179;52.094;4.408;2022-08-01T13:54:51;31.70;89.40
38398;DHT22;24179;52.094;4.408;2022-08-01T13:57:52;31.50;87.40
38398;DHT22;24179;52.094;4.408;2022-08-01T14:00:52;31.50;88.10
38398;DHT22;24179;52.094;4.408;2022-08-01T14:03:53;31.00;87.50
38398;DHT22;24179;52.094;4.408;2022-08-01T14:06:53;30.00;87.50
38398;DHT22;24179;52.094;4.408;2022-08-01T14:09:54;29.60;90.30
38398;DHT22;24179;52.094;4.408;2022-08-01T14:12:58;30.40;90.70
38398;DHT22;24179;52.094;4.408;2022-08-01T14:15:59;31.00;83.10
38398;DHT22;24179;52.094;4.408;2022-08-01T14:19:00;31.70;87.20
38398;DHT22;24179;52.094;4.408;2022-08-01T14:22:02;32.20;85.60
38398;DHT22;24179;52.094;4.408;2022-08-01T14:25:03;32.90;85.30
38398;DHT22;24179;52.094;4.408;2022-08-01T14:28:03;33.70;84.70
38398;DHT22;24179;52.094;4.408;2022-08-01T14:31:04;33.90;81.30
38398;DHT22;24179;52.094;4.408;2022-08-01T14:34:06;34.20;82.70
38398;DHT22;24179;52.094;4.408;2022-08-01T14:37:06;34.30;81.30
38398;DHT22;24179;52.094;4.408;2022-08-01T14:40:07;34.20;79.50
38398;DHT22;24179;52.094;4.408;2022-08-01T14:43:09;33.90;78.50
38398;DHT22;24179;52.094;4.408;2022-08-01T14:46:10;34.40;77.10
38398;DHT22;24179;52.094;4.408;2022-08-01T14:49:11;34.20;79.00
38398;DHT22;24179;52.094;4.408;2022-08-01T14:52:12;34.50;79.20
38398;DHT22;24179;52.094;4.408;2022-08-01T14:55:12;34.50;78.70
38398;DHT22;24179;52.094;4.408;2022-08-01T14:58:13;34.40;79.30
38398;DHT22;24179;52.094;4.408;2022-08-01T15:01:14;34.70;80.30
38398;DHT22;24179;52.094;4.408;2022-08-01T15:04:15;34.70;76.30
38398;DHT22;24179;52.094;4.408;2022-08-01T15:07:18;34.80;76.50
38398;DHT22;24179;52.094;4.408;2022-08-01T15:10:19;34.60;75.10
38398;DHT22;24179;52.094;4.408;2022-08-01T15:13:20;34.90;76.60
38398;DHT22;24179;52.094;4.408;2022-08-01T15:16:20;35.20;73.90
38398;DHT22;24179;52.094;4.408;2022-08-01T15:19:21;35.30;73.80
38398;DHT22;24179;52.094;4.408;2022-08-01T15:22:22;35.80;72.70
38398;DHT22;24179;52.094;4.408;2022-08-01T15:25:23;35.40;72.70
38398;DHT22;24179;52.094;4.408;2022-08-01T15:28:24;34.90;72.30
38398;DHT22;24179;52.094;4.408;2022-08-01T15:31:24;35.30;72.30
38398;DHT22;24179;52.094;4.408;2022-08-01T15:34:25;35.70;72.70
38398;DHT22;24179;52.094;4.408;2022-08-01T15:37:26;35.80;71.20
38398;DHT22;24179;52.094;4.408;2022-08-01T15:40:29;35.70;71.20
38398;DHT22;24179;52.094;4.408;2022-08-01T15:43:33;36.10;69.90
38398;DHT22;24179;52.094;4.408;2022-08-01T15:46:35;35.40;68.30
38398;DHT22;24179;52.094;4.408;2022-08-01T15:49:37;35.80;70.30
38398;DHT22;24179;52.094;4.408;2022-08-01T15:52:41;35.60;68.50
38398;DHT22;24179;52.094;4.408;2022-08-01T15:55:41;35.40;69.10
38398;DHT22;24179;52.094;4.408;2022-08-01T15:58:45;35.70;69.10
38398;DHT22;24179;52.094;4.408;2022-08-01T16:01:45;35.50;68.30
38398;DHT22;24179;52.094;4.408;2022-08-01T16:04:49;35.40;69.10
38398;DHT22;24179;52.094;4.408;2022-08-01T16:07:50;35.60;67.80
38398;DHT22;24179;52.094;4.408;2022-08-01T16:10:51;35.80;68.20
38398;DHT22;24179;52.094;4.408;2022-08-01T16:13:52;35.30;67.10
38398;DHT22;24179;52.094;4.408;2022-08-01T16:16:53;34.90;67.40
38398;DHT22;24179;52.094;4.408;2022-08-01T16:19:56;35.40;67.90
38398;DHT22;24179;52.094;4.408;2022-08-01T16:23:00;35.30;67.50
38398;DHT22;24179;52.094;4.408;2022-08-01T16:26:01;35.10;66.20
38398;DHT22;24179;52.094;4.408;2022-08-01T16:29:03;35.40;67.30
38398;DHT22;24179;52.094;4.408;2022-08-01T16:32:04;35.50;66.00
38398;DHT22;24179;52.094;4.408;2022-08-01T16:35:06;35.10;65.70
38398;DHT22;24179;52.094;4.408;2022-08-01T16:38:06;34.80;65.10
38398;DHT22;24179;52.094;4.408;2022-08-01T16:41:07;34.60;65.40
38398;DHT22;24179;52.094;4.408;2022-08-01T16:44:07;34.60;65.70
38398;DHT22;24179;52.094;4.408;2022-08-01T16:47:08;34.20;65.80
38398;DHT22;24179;52.094;4.408;2022-08-01T16:50:09;33.90;66.00
38398;DHT22;24179;52.094;4.408;2022-08-01T16:53:09;33.60;67.50
38398;DHT22;24179;52.094;4.408;2022-08-01T16:56:10;33.70;66.80
38398;DHT22;24179;52.094;4.408;2022-08-01T16:59:10;33.60;65.70
38398;DHT22;24179;52.094;4.408;2022-08-01T17:02:11;33.00;66.50
38398;DHT22;24179;52.094;4.408;2022-08-01T17:05:12;32.00;67.00
38398;DHT22;24179;52.094;4.408;2022-08-01T17:08:12;30.30;67.70
38398;DHT22;24179;52.094;4.408;2022-08-01T17:11:15;28.40;69.90
38398;DHT22;24179;52.094;4.408;2022-08-01T17:14:16;27.00;72.60
38398;DHT22;24179;52.094;4.408;2022-08-01T17:17:17;26.10;72.70
38398;DHT22;24179;52.094;4.408;2022-08-01T17:20:17;25.30;74.90
38398;DHT22;24179;52.094;4.408;2022-08-01T17:23:20;24.90;76.00
38398;DHT22;24179;52.094;4.408;2022-08-01T17:26:20;24.60;76.70
38398;DHT22;24179;52.094;4.408;2022-08-01T17:29:21;24.40;77.00
38398;DHT22;24179;52.094;4.408;2022-08-01T17:32:22;24.10;78.10
38398;DHT22;24179;52.094;4.408;2022-08-01T17:35:22;23.90;78.50
38398;DHT22;24179;52.094;4.408;2022-08-01T17:38:23;23.60;78.10
38398;DHT22;24179;52.094;4.408;2022-08-01T17:41:23;23.30;79.00
38398;DHT22;24179;52.094;4.408;2022-08-01T17:44:24;23.10;80.00
38398;DHT22;24179;52.094;4.408;2022-08-01T17:47:28;23.00;80.30
38398;DHT22;24179;52.094;4.408;2022-08-01T17:50:28;22.90;81.70
38398;DHT22;24179;52.094;4.408;2022-08-01T17:53:29;22.80;82.60
38398;DHT22;24179;52.094;4.408;2022-08-01T17:56:29;22.60;82.50
38398;DHT22;24179;52.094;4.408;2022-08-01T17:59:30;22.50;83.80
38398;DHT22;24179;52.094;4.408;2022-08-01T18:02:31;22.40;83.60
38398;DHT22;24179;52.094;4.408;2022-08-01T18:05:32;22.20;84.40
38398;DHT22;24179;52.094;4.408;2022-08-01T18:08:33;22.10;85.60
38398;DHT22;24179;52.094;4.408;2022-08-01T18:11:33;22.00;86.60
38398;DHT22;24179;52.094;4.408;2022-08-01T18:14:34;22.00;87.90
38398;DHT22;24179;52.094;4.408;2022-08-01T18:17:40;21.90;88.00
38398;DHT22;24179;52.094;4.408;2022-08-01T18:20:43;21.80;89.40
38398;DHT22;24179;52.094;4.408;2022-08-01T18:23:44;21.70;89.80
38398;DHT22;24179;52.094;4.408;2022-08-01T18:26:45;21.60;88.90
38398;DHT22;24179;52.094;4.408;2022-08-01T18:29:49;21.60;89.70
38398;DHT22;24179;52.094;4.408;2022-08-01T18:32:49;21.40;90.20
38398;DHT22;24179;52.094;4.408;2022-08-01T18:35:50;21.30;90.50
38398;DHT22;24179;52.094;4.408;2022-08-01T18:38:51;21.20;90.30
38398;DHT22;24179;52.094;4.408;2022-08-01T18:41:51;21.10;91.30
38398;DHT22;24179;52.094;4.408;2022-08-01T18:44:52;21.00;91.80
38398;DHT22;24179;52.094;4.408;2022-08-01T18:47:52;20.90;91.70
38398;DHT22;24179;52.094;4.408;2022-08-01T18:50:54;20.80;91.90
38398;DHT22;24179;52.094;4.408;2022-08-01T18:53:59;20.60;92.10
38398;DHT22;24179;52.094;4.408;2022-08-01T18:57:03;20.60;93.00
38398;DHT22;24179;52.094;4.408;2022-08-01T19:00:04;20.50;93.50
38398;DHT22;24179;52.094;4.408;2022-08-01T19:03:04;20.40;93.50
38398;DHT22;24179;52.094;4.408;2022-08-01T19:06:06;20.30;93.90
38398;DHT22;24179;52.094;4.408;2022-08-01T19:09:07;20.10;94.10
38398;DHT22;24179;52.094;4.408;2022-08-01T19:12:08;20.00;94.30
38398;DHT22;24179;52.094;4.408;2022-08-01T19:15:09;19.90;94.30
38398;DHT22;24179;52.094;4.408;2022-08-01T19:18:09;19.70;95.70
38398;DHT22;24179;52.094;4.408;2022-08-01T19:21:10;19.60;95.60
38398;DHT22;24179;52.094;4.408;2022-08-01T19:24:11;19.40;95.70
38398;DHT22;24179;52.094;4.408;2022-08-01T19:27:20;19.30;96.20
38398;DHT22;24179;52.094;4.408;2022-08-01T19:30:26;19.20;96.70
38398;DHT22;24179;52.094;4.408;2022-08-01T19:33:29;19.00;96.50
38398;DHT22;24179;52.094;4.408;2022-08-01T19:36:31;18.90;96.80
38398;DHT22;24179;52.094;4.408;2022-08-01T19:39:32;18.90;97.10
38398;DHT22;24179;52.094;4.408;2022-08-01T19:42:39;18.70;98.10
38398;DHT22;24179;52.094;4.408;2022-08-01T19:45:40;18.60;98.40
38398;DHT22;24179;52.094;4.408;2022-08-01T19:48:43;18.50;99.20
38398;DHT22;24179;52.094;4.408;2022-08-01T19:51:54;18.40;99.90
38398;DHT22;24179;52.094;4.408;2022-08-01T19:54:57;18.40;99.90
38398;DHT22;24179;52.094;4.408;2022-08-01T19:58:00;18.30;99.90
38398;DHT22;24179;52.094;4.408;2022-08-01T20:01:01;18.20;99.90
38398;DHT22;24179;52.094;4.408;2022-08-01T20:04:02;18.20;99.90
38398;DHT22;24179;52.094;4.408;2022-08-01T20:07:04;18.10;99.90
38398;DHT22;24179;52.094;4.408;2022-08-01T20:10:05;18.10;99.90
38398;DHT22;24179;52.094;4.408;2022-08-01T20:13:07;18.10;99.90